Weather History for KPQI - September, 2013

Change the Weather History Date:

Saturday, September 21, 2013

  Actual Average Record
Temperature  
Mean Temperature 63 °F -  
Max Temperature 73 °F 66 °F 86 °F (1985)
Min Temperature 53 °F 44 °F 25 °F (1929)
Degree Days  
Heating Degree Days 2    
Growing Degree Days 13 (Base 50)    
Moisture  
Dew Point 49 °F    
Average Humidity 65    
Maximum Humidity 88    
Minimum Humidity 35    
Precipitation  
Precipitation 0.00 in - - ()
Sea Level Pressure  
Sea Level Pressure 29.87 in    
Wind  
Wind Speed 13 mph (South)    
Max Wind Speed 30 mph    
Max Gust Speed 34 mph    
Visibility 10 miles    
Events      
Averages and records for this station are not official NWS values.
T = Trace of Precipitation, MM = Missing Value Source: NWS Daily Summary

Daily Weather History Graph

Daily Weather History Graph

Search for Another Location

Airport or City:

Trip Planner

Search our weather history database for the weather conditions in past years. The results will help you decide how hot, cold, wet, or windy it might be!

Date:

Astronomy

Sep. 21, 2013 Rise Set
Actual Time 6:18 AM EDT 6:31 PM EDT
Civil Twilight 5:47 AM EDT 7:01 PM EDT
Nautical Twilight 5:12 AM EDT 7:37 PM EDT
Astronomical Twilight 4:35 AM EDT 8:13 PM EDT
Moon 7:27 PM EDT (9/21) 8:43 AM EDT (9/21)
Length of Visible Light 13h 13m
Length of Day
12h 13m
Waning Gibbous, 94% of the Moon is Illuminated
Sep 21
Waning Gibbous
Sep 26
Last Quarter
Oct 4
New
Oct 11
First Quarter
Oct 18
Full

Hourly Weather History & Observations

Time (EDT) Temp. Dew Point Humidity Pressure Visibility Wind Dir Wind Speed Gust Speed Precip Events Conditions
12:15 AM 53.6 °F 50.0 °F 88% 30.04 in 10.0 mi SSE 10.4 mph - N/A   Overcast
12:35 AM 53.6 °F 50.0 °F 88% 30.04 in 8.0 mi SSE 9.2 mph - N/A   Overcast
12:55 AM 53.6 °F 50.0 °F 88% 30.04 in 8.0 mi SSE 9.2 mph - N/A   Overcast
1:15 AM 53.6 °F 50.0 °F 88% 30.04 in 9.0 mi SSE 8.1 mph - N/A   Overcast
1:35 AM 55.4 °F 50.0 °F 82% 30.04 in 8.0 mi SSE 9.2 mph - N/A   Overcast
1:55 AM 55.4 °F 50.0 °F 82% 30.03 in 7.0 mi SSE 8.1 mph - N/A   Overcast
2:15 AM 55.4 °F 51.8 °F 88% 30.02 in 9.0 mi SSE 8.1 mph - N/A   Overcast
2:35 AM 55.4 °F 51.8 °F 88% 30.02 in 8.0 mi SSE 9.2 mph - N/A   Overcast
2:55 AM 55.4 °F 51.8 °F 88% 30.01 in 10.0 mi SSE 6.9 mph - N/A   Overcast
3:35 AM 55.4 °F 51.8 °F 88% 30.00 in 10.0 mi SSE 8.1 mph - N/A   Overcast
3:55 AM 55.4 °F 50.0 °F 82% 29.99 in 10.0 mi SSE 8.1 mph - N/A   Overcast
4:15 AM 55.4 °F 50.0 °F 82% 29.99 in 10.0 mi SSE 10.4 mph - N/A   Overcast
4:35 AM 55.4 °F 50.0 °F 82% 29.99 in 10.0 mi SSE 6.9 mph - N/A   Overcast
4:55 AM 55.4 °F 50.0 °F 82% 29.99 in 10.0 mi SSE 8.1 mph - N/A   Overcast
5:15 AM 55.4 °F 50.0 °F 82% 29.98 in 10.0 mi SSE 8.1 mph - N/A   Overcast
5:35 AM 55.4 °F 50.0 °F 82% 29.97 in 10.0 mi SSE 8.1 mph - N/A   Overcast
6:15 AM 53.6 °F 48.2 °F 82% 29.96 in 10.0 mi South 9.2 mph - N/A   Mostly Cloudy
6:35 AM 53.6 °F 48.2 °F 82% 29.96 in 10.0 mi South 8.1 mph - N/A   Mostly Cloudy
7:15 AM 55.4 °F 48.2 °F 77% 29.94 in 10.0 mi SSE 9.2 mph - N/A   Partly Cloudy
7:35 AM 55.4 °F 50.0 °F 82% 29.94 in 10.0 mi South 6.9 mph - N/A   Scattered Clouds
7:55 AM 55.4 °F 50.0 °F 82% 29.94 in 10.0 mi South 12.7 mph - N/A   Partly Cloudy
8:15 AM 57.2 °F 50.0 °F 77% 29.94 in 10.0 mi South 12.7 mph - N/A   Clear
8:35 AM 57.2 °F 50.0 °F 77% 29.94 in 10.0 mi SSE 11.5 mph - N/A   Partly Cloudy
8:55 AM 59.0 °F 50.0 °F 72% 29.93 in 10.0 mi SSE 11.5 mph - N/A   Partly Cloudy
9:15 AM 60.8 °F 50.0 °F 68% 29.93 in 10.0 mi South 11.5 mph 18.4 mph N/A   Clear
9:55 AM 62.6 °F 50.0 °F 63% 29.91 in 10.0 mi South 16.1 mph 19.6 mph N/A   Clear
10:15 AM 62.6 °F 50.0 °F 63% 29.90 in 10.0 mi South 15.0 mph 21.9 mph N/A   Clear
10:35 AM 64.4 °F 48.2 °F 56% 29.89 in 10.0 mi South 17.3 mph 25.3 mph N/A   Clear
10:55 AM 64.4 °F 48.2 °F 56% 29.88 in 10.0 mi South 17.3 mph 23.0 mph N/A   Clear
11:15 AM 64.4 °F 46.4 °F 52% 29.87 in 10.0 mi South 16.1 mph - N/A   Clear
11:35 AM 66.2 °F 46.4 °F 49% 29.86 in 10.0 mi South 19.6 mph 27.6 mph N/A   Clear
11:55 AM 68.0 °F 44.6 °F 43% 29.86 in 10.0 mi South 21.9 mph 28.8 mph N/A   Clear
12:35 PM 69.8 °F 44.6 °F 40% 29.84 in 10.0 mi South 15.0 mph 21.9 mph N/A   Clear
12:55 PM 69.8 °F 44.6 °F 40% 29.83 in 10.0 mi SSW 17.3 mph 28.8 mph N/A   Clear
1:15 PM 71.6 °F 44.6 °F 38% 29.82 in 10.0 mi South 21.9 mph 27.6 mph N/A   Clear
1:35 PM 71.6 °F 44.6 °F 38% 29.81 in 10.0 mi SSW 16.1 mph 24.2 mph N/A   Clear
1:55 PM 71.6 °F 44.6 °F 38% 29.80 in 10.0 mi South 23.0 mph 29.9 mph N/A   Clear
2:15 PM 71.6 °F 44.6 °F 38% 29.80 in 10.0 mi South 19.6 mph 29.9 mph N/A   Clear
2:35 PM 71.6 °F 44.6 °F 38% 29.79 in 10.0 mi South 23.0 mph 32.2 mph N/A   Clear
2:55 PM 73.4 °F 44.6 °F 36% 29.78 in 10.0 mi SSW 19.6 mph 27.6 mph N/A   Clear
3:15 PM 71.6 °F 44.6 °F 38% 29.77 in 10.0 mi South 21.9 mph 31.1 mph N/A   Clear
3:35 PM 71.6 °F 42.8 °F 35% 29.76 in 10.0 mi South 29.9 mph 34.5 mph N/A   Clear
3:55 PM 71.6 °F 44.6 °F 38% 29.75 in 10.0 mi South 24.2 mph 31.1 mph N/A   Clear
4:15 PM 71.6 °F 44.6 °F 38% 29.76 in 10.0 mi South 19.6 mph 29.9 mph N/A   Clear
4:55 PM 69.8 °F 44.6 °F 40% 29.76 in 10.0 mi South 18.4 mph 24.2 mph N/A   Clear
5:15 PM 68.0 °F 46.4 °F 46% 29.75 in 10.0 mi South 18.4 mph 24.2 mph N/A   Clear
5:35 PM 66.2 °F 48.2 °F 52% 29.75 in 10.0 mi South 18.4 mph 27.6 mph N/A   Clear
5:55 PM 66.2 °F 48.2 °F 52% 29.75 in 10.0 mi South 11.5 mph 23.0 mph N/A   Clear
6:15 PM 64.4 °F 48.2 °F 56% 29.76 in 10.0 mi South 15.0 mph - N/A   Clear
6:35 PM 64.4 °F 48.2 °F 56% 29.76 in 10.0 mi South 13.8 mph 21.9 mph N/A   Clear
6:55 PM 62.6 °F 48.2 °F 59% 29.76 in 10.0 mi South 13.8 mph 21.9 mph N/A   Clear
7:35 PM 62.6 °F 48.2 °F 59% 29.78 in 10.0 mi South 19.6 mph 28.8 mph N/A   Partly Cloudy
7:55 PM 60.8 °F 48.2 °F 63% 29.77 in 10.0 mi South 18.4 mph 24.2 mph N/A   Partly Cloudy
8:15 PM 60.8 °F 48.2 °F 63% 29.76 in 10.0 mi South 24.2 mph 29.9 mph N/A   Clear
8:35 PM 60.8 °F 50.0 °F 68% 29.77 in 10.0 mi South 19.6 mph 25.3 mph N/A   Clear
8:55 PM 60.8 °F 51.8 °F 72% 29.77 in 10.0 mi South 17.3 mph 24.2 mph N/A   Clear
9:15 PM 60.8 °F 51.8 °F 72% 29.77 in 10.0 mi South 12.7 mph 18.4 mph N/A   Partly Cloudy
9:35 PM 62.6 °F 53.6 °F 72% 29.77 in 10.0 mi South 18.4 mph 24.2 mph N/A   Mostly Cloudy
9:55 PM 62.6 °F 53.6 °F 72% 29.77 in 10.0 mi South 13.8 mph 21.9 mph N/A   Overcast
10:15 PM 62.6 °F 53.6 °F 72% 29.77 in 10.0 mi South 16.1 mph 24.2 mph N/A   Overcast
10:35 PM 62.6 °F 53.6 °F 72% 29.76 in 10.0 mi South 17.3 mph 23.0 mph N/A   Overcast
10:55 PM 62.6 °F 53.6 °F 72% 29.76 in 10.0 mi South 16.1 mph 26.5 mph N/A   Overcast
11:15 PM 62.6 °F 53.6 °F 72% 29.75 in 10.0 mi South 19.6 mph 27.6 mph N/A   Overcast
11:55 PM 62.6 °F 53.6 °F 72% 29.75 in 10.0 mi South 17.3 mph 24.2 mph N/A   Overcast